Terminal Aerodrome Forecast
Issued by NWS Huntsville, AL

Home | Current Version | Previous Version | Text Only | Print | Product List | Glossary On
Versions: 1 2 3 4 5 6 7 8 9 10 11 12 13 14 15 16 17 18 19 20 21 22 23 24 25 26 27 28
000
FTUS44 KHUN 030520
TAFHSV
TAF
KHSV 030520Z 0306/0406 24007KT P6SM VCSH BKN040 BKN070 BKN250
      TEMPO 0311/0315 TSRA BKN030CB
     FM031500 24012G20KT P6SM SCT030 BKN050 OVC100 PROB30 0315/0319
      TSRA BKN030CB
     FM032200 24012KT 4SM BR VCSH SCT020 OVC060
     FM040300 19008KT P6SM OVC030=

USA.gov is the U.S. government's official web portal to all federal, state and local government web resources and services.